sensor_id;sensor_type;location;lat;lon;timestamp;P1;durP1;ratioP1;P2;durP2;ratioP2
35835;SDS011;21955;50.580;7.228;2022-11-20T00:01:10;24.52;;;13.07;;
35835;SDS011;21955;50.580;7.228;2022-11-20T00:03:38;24.08;;;12.88;;
35835;SDS011;21955;50.580;7.228;2022-11-20T00:06:06;24.90;;;13.63;;
35835;SDS011;21955;50.580;7.228;2022-11-20T00:08:34;25.23;;;13.50;;
35835;SDS011;21955;50.580;7.228;2022-11-20T00:11:02;25.42;;;13.25;;
35835;SDS011;21955;50.580;7.228;2022-11-20T00:13:31;26.57;;;13.23;;
35835;SDS011;21955;50.580;7.228;2022-11-20T00:15:58;24.00;;;13.63;;
35835;SDS011;21955;50.580;7.228;2022-11-20T00:18:26;25.73;;;13.25;;
35835;SDS011;21955;50.580;7.228;2022-11-20T00:20:53;25.55;;;13.55;;
35835;SDS011;21955;50.580;7.228;2022-11-20T00:23:20;25.33;;;13.40;;
35835;SDS011;21955;50.580;7.228;2022-11-20T00:25:47;25.95;;;13.43;;
35835;SDS011;21955;50.580;7.228;2022-11-20T00:28:14;23.08;;;12.82;;
35835;SDS011;21955;50.580;7.228;2022-11-20T00:30:47;23.90;;;12.90;;
35835;SDS011;21955;50.580;7.228;2022-11-20T00:33:14;25.17;;;13.07;;
35835;SDS011;21955;50.580;7.228;2022-11-20T00:35:41;26.08;;;13.25;;
35835;SDS011;21955;50.580;7.228;2022-11-20T00:38:08;26.85;;;13.80;;
35835;SDS011;21955;50.580;7.228;2022-11-20T00:40:35;25.50;;;13.33;;
35835;SDS011;21955;50.580;7.228;2022-11-20T00:43:02;26.13;;;13.23;;
35835;SDS011;21955;50.580;7.228;2022-11-20T00:45:29;26.77;;;14.13;;
35835;SDS011;21955;50.580;7.228;2022-11-20T00:47:58;25.92;;;13.93;;
35835;SDS011;21955;50.580;7.228;2022-11-20T00:50:25;25.80;;;13.50;;
35835;SDS011;21955;50.580;7.228;2022-11-20T00:52:52;26.45;;;13.70;;
35835;SDS011;21955;50.580;7.228;2022-11-20T00:55:19;27.50;;;13.88;;
35835;SDS011;21955;50.580;7.228;2022-11-20T00:57:46;26.30;;;13.70;;
35835;SDS011;21955;50.580;7.228;2022-11-20T01:00:15;27.15;;;13.85;;
35835;SDS011;21955;50.580;7.228;2022-11-20T01:02:42;24.67;;;13.73;;
35835;SDS011;21955;50.580;7.228;2022-11-20T01:05:10;28.20;;;14.38;;
35835;SDS011;21955;50.580;7.228;2022-11-20T01:07:38;27.77;;;14.40;;
35835;SDS011;21955;50.580;7.228;2022-11-20T01:10:06;25.43;;;13.90;;
35835;SDS011;21955;50.580;7.228;2022-11-20T01:12:33;25.90;;;14.02;;
35835;SDS011;21955;50.580;7.228;2022-11-20T01:15:00;27.73;;;14.43;;
35835;SDS011;21955;50.580;7.228;2022-11-20T01:17:27;26.27;;;13.40;;
35835;SDS011;21955;50.580;7.228;2022-11-20T01:19:54;27.27;;;13.90;;
35835;SDS011;21955;50.580;7.228;2022-11-20T01:22:23;28.43;;;14.20;;
35835;SDS011;21955;50.580;7.228;2022-11-20T01:24:50;27.02;;;13.98;;
35835;SDS011;21955;50.580;7.228;2022-11-20T01:27:17;27.70;;;13.98;;
35835;SDS011;21955;50.580;7.228;2022-11-20T01:29:44;26.55;;;13.82;;
35835;SDS011;21955;50.580;7.228;2022-11-20T01:32:13;26.50;;;14.02;;
35835;SDS011;21955;50.580;7.228;2022-11-20T01:34:40;27.65;;;14.07;;
35835;SDS011;21955;50.580;7.228;2022-11-20T01:37:09;26.33;;;14.02;;
35835;SDS011;21955;50.580;7.228;2022-11-20T01:39:38;29.60;;;14.20;;
35835;SDS011;21955;50.580;7.228;2022-11-20T01:42:05;28.42;;;14.77;;
35835;SDS011;21955;50.580;7.228;2022-11-20T01:44:50;27.40;;;13.93;;
35835;SDS011;21955;50.580;7.228;2022-11-20T01:47:20;27.70;;;13.73;;
35835;SDS011;21955;50.580;7.228;2022-11-20T01:49:49;27.63;;;14.10;;
35835;SDS011;21955;50.580;7.228;2022-11-20T01:52:18;28.00;;;13.90;;
35835;SDS011;21955;50.580;7.228;2022-11-20T01:54:49;26.75;;;14.20;;
35835;SDS011;21955;50.580;7.228;2022-11-20T01:57:17;27.85;;;14.02;;
35835;SDS011;21955;50.580;7.228;2022-11-20T01:59:47;27.27;;;14.10;;
35835;SDS011;21955;50.580;7.228;2022-11-20T02:02:16;28.48;;;14.48;;
35835;SDS011;21955;50.580;7.228;2022-11-20T02:04:43;28.38;;;14.35;;
35835;SDS011;21955;50.580;7.228;2022-11-20T02:07:11;26.53;;;13.87;;
35835;SDS011;21955;50.580;7.228;2022-11-20T02:09:38;30.08;;;14.35;;
35835;SDS011;21955;50.580;7.228;2022-11-20T02:12:07;29.95;;;14.35;;
35835;SDS011;21955;50.580;7.228;2022-11-20T02:14:54;26.17;;;13.93;;
35835;SDS011;21955;50.580;7.228;2022-11-20T02:17:20;26.90;;;14.13;;
35835;SDS011;21955;50.580;7.228;2022-11-20T02:19:47;27.17;;;13.88;;
35835;SDS011;21955;50.580;7.228;2022-11-20T02:22:17;26.15;;;13.93;;
35835;SDS011;21955;50.580;7.228;2022-11-20T02:24:47;28.17;;;14.10;;
35835;SDS011;21955;50.580;7.228;2022-11-20T02:27:15;27.60;;;14.10;;
35835;SDS011;21955;50.580;7.228;2022-11-20T02:29:44;28.83;;;14.30;;
35835;SDS011;21955;50.580;7.228;2022-11-20T02:32:17;29.50;;;14.88;;
35835;SDS011;21955;50.580;7.228;2022-11-20T02:34:45;27.75;;;14.43;;
35835;SDS011;21955;50.580;7.228;2022-11-20T02:37:12;29.60;;;15.02;;
35835;SDS011;21955;50.580;7.228;2022-11-20T02:39:39;26.58;;;14.10;;
35835;SDS011;21955;50.580;7.228;2022-11-20T02:42:08;28.02;;;14.32;;
35835;SDS011;21955;50.580;7.228;2022-11-20T02:44:35;27.13;;;14.48;;
35835;SDS011;21955;50.580;7.228;2022-11-20T02:47:02;27.58;;;14.68;;
35835;SDS011;21955;50.580;7.228;2022-11-20T02:49:30;27.45;;;14.18;;
35835;SDS011;21955;50.580;7.228;2022-11-20T02:51:57;27.50;;;14.18;;
35835;SDS011;21955;50.580;7.228;2022-11-20T02:54:24;28.00;;;14.07;;
35835;SDS011;21955;50.580;7.228;2022-11-20T02:56:51;26.63;;;13.77;;
35835;SDS011;21955;50.580;7.228;2022-11-20T02:59:19;30.10;;;15.18;;
35835;SDS011;21955;50.580;7.228;2022-11-20T03:01:46;29.30;;;14.48;;
35835;SDS011;21955;50.580;7.228;2022-11-20T03:04:14;28.45;;;14.13;;
35835;SDS011;21955;50.580;7.228;2022-11-20T03:06:41;28.33;;;14.45;;
35835;SDS011;21955;50.580;7.228;2022-11-20T03:09:08;26.47;;;14.10;;
35835;SDS011;21955;50.580;7.228;2022-11-20T03:11:35;26.98;;;13.80;;
35835;SDS011;21955;50.580;7.228;2022-11-20T03:14:04;28.95;;;14.35;;
35835;SDS011;21955;50.580;7.228;2022-11-20T03:16:33;28.73;;;14.60;;
35835;SDS011;21955;50.580;7.228;2022-11-20T03:19:00;28.73;;;14.90;;
35835;SDS011;21955;50.580;7.228;2022-11-20T03:21:28;27.58;;;14.00;;
35835;SDS011;21955;50.580;7.228;2022-11-20T03:23:56;28.00;;;14.45;;
35835;SDS011;21955;50.580;7.228;2022-11-20T03:26:24;29.40;;;14.88;;
35835;SDS011;21955;50.580;7.228;2022-11-20T03:28:52;29.83;;;14.80;;
35835;SDS011;21955;50.580;7.228;2022-11-20T03:31:21;29.88;;;15.10;;
35835;SDS011;21955;50.580;7.228;2022-11-20T03:33:50;27.33;;;14.35;;
35835;SDS011;21955;50.580;7.228;2022-11-20T03:36:17;28.77;;;14.05;;
35835;SDS011;21955;50.580;7.228;2022-11-20T03:38:45;28.05;;;14.07;;
35835;SDS011;21955;50.580;7.228;2022-11-20T03:41:13;27.20;;;13.45;;
35835;SDS011;21955;50.580;7.228;2022-11-20T03:43:41;28.58;;;14.82;;
35835;SDS011;21955;50.580;7.228;2022-11-20T03:46:08;26.20;;;13.82;;
35835;SDS011;21955;50.580;7.228;2022-11-20T03:48:35;25.83;;;13.60;;
35835;SDS011;21955;50.580;7.228;2022-11-20T03:51:10;27.17;;;14.02;;
35835;SDS011;21955;50.580;7.228;2022-11-20T03:53:37;25.98;;;13.73;;
35835;SDS011;21955;50.580;7.228;2022-11-20T03:56:05;28.02;;;14.48;;
35835;SDS011;21955;50.580;7.228;2022-11-20T03:58:33;28.73;;;14.40;;
35835;SDS011;21955;50.580;7.228;2022-11-20T04:01:04;26.03;;;13.23;;
35835;SDS011;21955;50.580;7.228;2022-11-20T04:03:31;25.33;;;13.10;;
35835;SDS011;21955;50.580;7.228;2022-11-20T04:06:01;28.55;;;13.80;;
35835;SDS011;21955;50.580;7.228;2022-11-20T04:08:29;28.60;;;14.45;;
35835;SDS011;21955;50.580;7.228;2022-11-20T04:10:56;26.92;;;13.70;;
35835;SDS011;21955;50.580;7.228;2022-11-20T04:13:23;26.65;;;13.88;;
35835;SDS011;21955;50.580;7.228;2022-11-20T04:15:50;26.45;;;13.70;;
35835;SDS011;21955;50.580;7.228;2022-11-20T04:18:17;27.27;;;13.82;;
35835;SDS011;21955;50.580;7.228;2022-11-20T04:20:44;27.30;;;13.40;;
35835;SDS011;21955;50.580;7.228;2022-11-20T04:23:11;27.75;;;13.98;;
35835;SDS011;21955;50.580;7.228;2022-11-20T04:25:40;28.20;;;14.23;;
35835;SDS011;21955;50.580;7.228;2022-11-20T04:28:07;27.33;;;14.25;;
35835;SDS011;21955;50.580;7.228;2022-11-20T04:30:34;27.75;;;13.98;;
35835;SDS011;21955;50.580;7.228;2022-11-20T04:33:01;26.27;;;13.30;;
35835;SDS011;21955;50.580;7.228;2022-11-20T04:35:28;25.90;;;13.80;;
35835;SDS011;21955;50.580;7.228;2022-11-20T04:37:56;28.98;;;14.13;;
35835;SDS011;21955;50.580;7.228;2022-11-20T04:40:23;27.83;;;14.00;;
35835;SDS011;21955;50.580;7.228;2022-11-20T04:42:51;28.95;;;13.98;;
35835;SDS011;21955;50.580;7.228;2022-11-20T04:45:18;28.67;;;14.38;;
35835;SDS011;21955;50.580;7.228;2022-11-20T04:47:45;29.87;;;14.07;;
35835;SDS011;21955;50.580;7.228;2022-11-20T04:50:12;29.75;;;14.25;;
35835;SDS011;21955;50.580;7.228;2022-11-20T04:52:42;27.30;;;13.73;;
35835;SDS011;21955;50.580;7.228;2022-11-20T04:55:09;26.25;;;14.02;;
35835;SDS011;21955;50.580;7.228;2022-11-20T04:57:36;27.53;;;13.63;;
35835;SDS011;21955;50.580;7.228;2022-11-20T05:00:05;28.05;;;14.55;;
35835;SDS011;21955;50.580;7.228;2022-11-20T05:02:32;29.67;;;15.18;;
35835;SDS011;21955;50.580;7.228;2022-11-20T05:04:59;28.23;;;14.18;;
35835;SDS011;21955;50.580;7.228;2022-11-20T05:07:27;28.63;;;14.40;;
35835;SDS011;21955;50.580;7.228;2022-11-20T05:09:54;28.95;;;14.13;;
35835;SDS011;21955;50.580;7.228;2022-11-20T05:12:21;29.58;;;14.73;;
35835;SDS011;21955;50.580;7.228;2022-11-20T05:14:48;29.73;;;14.95;;
35835;SDS011;21955;50.580;7.228;2022-11-20T05:17:16;31.23;;;14.98;;
35835;SDS011;21955;50.580;7.228;2022-11-20T05:19:43;29.40;;;15.00;;
35835;SDS011;21955;50.580;7.228;2022-11-20T05:22:10;29.73;;;14.38;;
35835;SDS011;21955;50.580;7.228;2022-11-20T05:24:37;30.07;;;14.67;;
35835;SDS011;21955;50.580;7.228;2022-11-20T05:27:04;31.30;;;14.60;;
35835;SDS011;21955;50.580;7.228;2022-11-20T05:29:31;31.15;;;14.85;;
35835;SDS011;21955;50.580;7.228;2022-11-20T05:31:58;32.07;;;14.97;;
35835;SDS011;21955;50.580;7.228;2022-11-20T05:34:27;31.95;;;14.57;;
35835;SDS011;21955;50.580;7.228;2022-11-20T05:36:54;32.42;;;14.95;;
35835;SDS011;21955;50.580;7.228;2022-11-20T05:39:21;32.45;;;14.70;;
35835;SDS011;21955;50.580;7.228;2022-11-20T05:41:48;30.97;;;15.00;;
35835;SDS011;21955;50.580;7.228;2022-11-20T05:44:35;32.10;;;14.73;;
35835;SDS011;21955;50.580;7.228;2022-11-20T05:47:02;34.35;;;15.13;;
35835;SDS011;21955;50.580;7.228;2022-11-20T05:49:31;32.67;;;15.40;;
35835;SDS011;21955;50.580;7.228;2022-11-20T05:51:58;34.33;;;15.18;;
35835;SDS011;21955;50.580;7.228;2022-11-20T05:54:25;38.72;;;15.50;;
35835;SDS011;21955;50.580;7.228;2022-11-20T05:56:52;34.38;;;15.70;;
35835;SDS011;21955;50.580;7.228;2022-11-20T05:59:19;36.58;;;15.70;;
35835;SDS011;21955;50.580;7.228;2022-11-20T06:01:46;34.15;;;15.10;;
35835;SDS011;21955;50.580;7.228;2022-11-20T06:04:13;35.00;;;15.43;;
35835;SDS011;21955;50.580;7.228;2022-11-20T06:06:42;38.00;;;16.17;;
35835;SDS011;21955;50.580;7.228;2022-11-20T06:09:09;36.83;;;15.88;;
35835;SDS011;21955;50.580;7.228;2022-11-20T06:11:36;38.13;;;16.15;;
35835;SDS011;21955;50.580;7.228;2022-11-20T06:14:03;38.47;;;16.13;;
35835;SDS011;21955;50.580;7.228;2022-11-20T06:16:30;36.58;;;15.77;;
35835;SDS011;21955;50.580;7.228;2022-11-20T06:18:57;39.80;;;16.40;;
35835;SDS011;21955;50.580;7.228;2022-11-20T06:21:25;35.83;;;15.77;;
35835;SDS011;21955;50.580;7.228;2022-11-20T06:23:53;37.47;;;15.88;;
35835;SDS011;21955;50.580;7.228;2022-11-20T06:26:21;39.65;;;16.10;;
35835;SDS011;21955;50.580;7.228;2022-11-20T06:28:49;38.80;;;16.23;;
35835;SDS011;21955;50.580;7.228;2022-11-20T06:31:17;37.50;;;16.05;;
35835;SDS011;21955;50.580;7.228;2022-11-20T06:33:44;40.22;;;16.25;;
35835;SDS011;21955;50.580;7.228;2022-11-20T06:36:12;41.85;;;17.17;;
35835;SDS011;21955;50.580;7.228;2022-11-20T06:38:39;40.08;;;16.40;;
35835;SDS011;21955;50.580;7.228;2022-11-20T06:41:10;37.55;;;16.55;;
35835;SDS011;21955;50.580;7.228;2022-11-20T06:43:37;38.05;;;16.42;;
35835;SDS011;21955;50.580;7.228;2022-11-20T06:46:04;37.58;;;15.48;;
35835;SDS011;21955;50.580;7.228;2022-11-20T06:48:32;35.72;;;15.63;;
35835;SDS011;21955;50.580;7.228;2022-11-20T06:50:59;35.80;;;16.15;;
35835;SDS011;21955;50.580;7.228;2022-11-20T06:53:26;36.22;;;15.75;;
35835;SDS011;21955;50.580;7.228;2022-11-20T06:55:55;34.53;;;15.23;;
35835;SDS011;21955;50.580;7.228;2022-11-20T06:58:25;38.45;;;15.63;;
35835;SDS011;21955;50.580;7.228;2022-11-20T07:00:53;38.88;;;16.08;;
35835;SDS011;21955;50.580;7.228;2022-11-20T07:03:20;38.15;;;16.00;;
35835;SDS011;21955;50.580;7.228;2022-11-20T07:05:47;36.13;;;15.80;;
35835;SDS011;21955;50.580;7.228;2022-11-20T07:08:14;35.22;;;15.88;;
35835;SDS011;21955;50.580;7.228;2022-11-20T07:10:41;34.88;;;15.60;;
35835;SDS011;21955;50.580;7.228;2022-11-20T07:13:08;34.22;;;15.65;;
35835;SDS011;21955;50.580;7.228;2022-11-20T07:15:37;32.50;;;14.52;;
35835;SDS011;21955;50.580;7.228;2022-11-20T07:18:04;32.85;;;14.90;;
35835;SDS011;21955;50.580;7.228;2022-11-20T07:20:31;35.13;;;15.63;;
35835;SDS011;21955;50.580;7.228;2022-11-20T07:22:58;32.53;;;14.55;;
35835;SDS011;21955;50.580;7.228;2022-11-20T07:25:26;34.72;;;15.38;;
35835;SDS011;21955;50.580;7.228;2022-11-20T07:27:56;31.38;;;14.80;;
35835;SDS011;21955;50.580;7.228;2022-11-20T07:30:23;37.05;;;16.35;;
35835;SDS011;21955;50.580;7.228;2022-11-20T07:32:52;34.33;;;15.55;;
35835;SDS011;21955;50.580;7.228;2022-11-20T07:35:20;33.80;;;16.08;;
35835;SDS011;21955;50.580;7.228;2022-11-20T07:37:47;33.60;;;15.88;;
35835;SDS011;21955;50.580;7.228;2022-11-20T07:40:15;35.60;;;16.25;;
35835;SDS011;21955;50.580;7.228;2022-11-20T07:42:46;34.08;;;15.68;;
35835;SDS011;21955;50.580;7.228;2022-11-20T07:45:15;33.97;;;15.63;;
35835;SDS011;21955;50.580;7.228;2022-11-20T07:47:42;36.58;;;15.90;;
35835;SDS011;21955;50.580;7.228;2022-11-20T07:50:12;32.58;;;15.00;;
35835;SDS011;21955;50.580;7.228;2022-11-20T07:52:39;39.75;;;16.42;;
35835;SDS011;21955;50.580;7.228;2022-11-20T07:55:08;38.20;;;16.52;;
35835;SDS011;21955;50.580;7.228;2022-11-20T07:57:35;35.80;;;16.35;;
35835;SDS011;21955;50.580;7.228;2022-11-20T08:00:03;38.25;;;16.27;;
35835;SDS011;21955;50.580;7.228;2022-11-20T08:02:30;36.33;;;15.65;;
35835;SDS011;21955;50.580;7.228;2022-11-20T08:04:57;33.65;;;14.98;;
35835;SDS011;21955;50.580;7.228;2022-11-20T08:07:26;34.53;;;15.90;;
35835;SDS011;21955;50.580;7.228;2022-11-20T08:09:53;37.00;;;15.75;;
35835;SDS011;21955;50.580;7.228;2022-11-20T08:12:20;34.50;;;15.50;;
35835;SDS011;21955;50.580;7.228;2022-11-20T08:15:06;36.90;;;15.50;;
35835;SDS011;21955;50.580;7.228;2022-11-20T08:17:33;31.58;;;14.52;;
35835;SDS011;21955;50.580;7.228;2022-11-20T08:20:00;33.17;;;15.32;;
35835;SDS011;21955;50.580;7.228;2022-11-20T08:22:29;32.55;;;15.15;;
35835;SDS011;21955;50.580;7.228;2022-11-20T08:24:56;31.80;;;14.68;;
35835;SDS011;21955;50.580;7.228;2022-11-20T08:27:24;32.13;;;15.30;;
35835;SDS011;21955;50.580;7.228;2022-11-20T08:29:51;34.75;;;15.73;;
35835;SDS011;21955;50.580;7.228;2022-11-20T08:32:18;31.80;;;14.68;;
35835;SDS011;21955;50.580;7.228;2022-11-20T08:34:45;32.28;;;15.02;;
35835;SDS011;21955;50.580;7.228;2022-11-20T08:37:12;34.78;;;15.52;;
35835;SDS011;21955;50.580;7.228;2022-11-20T08:39:40;43.55;;;25.65;;
35835;SDS011;21955;50.580;7.228;2022-11-20T08:42:08;43.88;;;23.80;;
35835;SDS011;21955;50.580;7.228;2022-11-20T08:44:35;44.97;;;24.48;;
35835;SDS011;21955;50.580;7.228;2022-11-20T08:47:03;39.53;;;19.77;;
35835;SDS011;21955;50.580;7.228;2022-11-20T08:49:30;33.67;;;15.98;;
35835;SDS011;21955;50.580;7.228;2022-11-20T08:51:58;44.80;;;25.15;;
35835;SDS011;21955;50.580;7.228;2022-11-20T08:54:25;34.90;;;17.35;;
35835;SDS011;21955;50.580;7.228;2022-11-20T08:56:53;33.58;;;16.02;;
35835;SDS011;21955;50.580;7.228;2022-11-20T08:59:21;33.50;;;16.35;;
35835;SDS011;21955;50.580;7.228;2022-11-20T09:01:48;31.73;;;14.68;;
35835;SDS011;21955;50.580;7.228;2022-11-20T09:04:18;31.70;;;14.82;;
35835;SDS011;21955;50.580;7.228;2022-11-20T09:06:45;33.45;;;15.30;;
35835;SDS011;21955;50.580;7.228;2022-11-20T09:09:15;36.00;;;16.10;;
35835;SDS011;21955;50.580;7.228;2022-11-20T09:11:43;33.78;;;15.90;;
35835;SDS011;21955;50.580;7.228;2022-11-20T09:14:11;38.13;;;16.00;;
35835;SDS011;21955;50.580;7.228;2022-11-20T09:16:38;33.65;;;15.15;;
35835;SDS011;21955;50.580;7.228;2022-11-20T09:19:06;33.15;;;16.20;;
35835;SDS011;21955;50.580;7.228;2022-11-20T09:21:33;34.05;;;15.80;;
35835;SDS011;21955;50.580;7.228;2022-11-20T09:24:00;33.45;;;15.52;;
35835;SDS011;21955;50.580;7.228;2022-11-20T09:26:27;34.00;;;15.23;;
35835;SDS011;21955;50.580;7.228;2022-11-20T09:28:54;33.35;;;15.20;;
35835;SDS011;21955;50.580;7.228;2022-11-20T09:31:23;32.00;;;15.20;;
35835;SDS011;21955;50.580;7.228;2022-11-20T09:33:50;34.20;;;15.23;;
35835;SDS011;21955;50.580;7.228;2022-11-20T09:36:18;32.70;;;15.10;;
35835;SDS011;21955;50.580;7.228;2022-11-20T09:38:45;35.55;;;15.27;;
35835;SDS011;21955;50.580;7.228;2022-11-20T09:41:18;30.67;;;14.50;;
35835;SDS011;21955;50.580;7.228;2022-11-20T09:43:50;34.03;;;15.23;;
35835;SDS011;21955;50.580;7.228;2022-11-20T09:46:25;35.13;;;15.80;;
35835;SDS011;21955;50.580;7.228;2022-11-20T09:49:01;33.70;;;15.38;;
35835;SDS011;21955;50.580;7.228;2022-11-20T09:51:34;32.30;;;15.63;;
35835;SDS011;21955;50.580;7.228;2022-11-20T09:54:10;36.42;;;16.33;;
35835;SDS011;21955;50.580;7.228;2022-11-20T09:56:40;32.05;;;15.60;;
35835;SDS011;21955;50.580;7.228;2022-11-20T09:59:13;31.20;;;14.90;;
35835;SDS011;21955;50.580;7.228;2022-11-20T10:01:44;32.63;;;16.02;;
35835;SDS011;21955;50.580;7.228;2022-11-20T10:04:12;36.70;;;16.97;;
35835;SDS011;21955;50.580;7.228;2022-11-20T10:06:42;31.63;;;16.08;;
35835;SDS011;21955;50.580;7.228;2022-11-20T10:09:19;29.08;;;14.20;;
35835;SDS011;21955;50.580;7.228;2022-11-20T10:11:48;27.25;;;13.40;;
35835;SDS011;21955;50.580;7.228;2022-11-20T10:14:21;29.38;;;13.82;;
35835;SDS011;21955;50.580;7.228;2022-11-20T10:16:56;29.75;;;14.07;;
35835;SDS011;21955;50.580;7.228;2022-11-20T10:19:30;30.60;;;13.50;;
35835;SDS011;21955;50.580;7.228;2022-11-20T10:22:07;26.52;;;12.73;;
35835;SDS011;21955;50.580;7.228;2022-11-20T10:24:42;27.60;;;13.45;;
35835;SDS011;21955;50.580;7.228;2022-11-20T10:27:14;27.17;;;13.40;;
35835;SDS011;21955;50.580;7.228;2022-11-20T10:29:43;25.92;;;12.77;;
35835;SDS011;21955;50.580;7.228;2022-11-20T10:32:14;24.83;;;12.57;;
35835;SDS011;21955;50.580;7.228;2022-11-20T10:34:44;23.73;;;12.32;;
35835;SDS011;21955;50.580;7.228;2022-11-20T10:37:14;27.10;;;12.80;;
35835;SDS011;21955;50.580;7.228;2022-11-20T10:39:45;25.63;;;12.70;;
35835;SDS011;21955;50.580;7.228;2022-11-20T10:42:16;26.77;;;12.57;;
35835;SDS011;21955;50.580;7.228;2022-11-20T10:44:47;24.73;;;11.82;;
35835;SDS011;21955;50.580;7.228;2022-11-20T10:47:30;25.23;;;12.27;;
35835;SDS011;21955;50.580;7.228;2022-11-20T10:49:58;26.38;;;12.15;;
35835;SDS011;21955;50.580;7.228;2022-11-20T10:52:30;27.20;;;12.43;;
35835;SDS011;21955;50.580;7.228;2022-11-20T10:55:02;25.92;;;12.25;;
35835;SDS011;21955;50.580;7.228;2022-11-20T10:57:36;27.17;;;13.15;;
35835;SDS011;21955;50.580;7.228;2022-11-20T11:00:09;26.27;;;13.13;;
35835;SDS011;21955;50.580;7.228;2022-11-20T11:02:41;27.17;;;12.90;;
35835;SDS011;21955;50.580;7.228;2022-11-20T11:05:11;26.55;;;12.32;;
35835;SDS011;21955;50.580;7.228;2022-11-20T11:07:41;29.90;;;13.27;;
35835;SDS011;21955;50.580;7.228;2022-11-20T11:10:13;31.98;;;13.38;;
35835;SDS011;21955;50.580;7.228;2022-11-20T11:12:43;28.95;;;13.35;;
35835;SDS011;21955;50.580;7.228;2022-11-20T11:15:11;32.10;;;14.73;;
35835;SDS011;21955;50.580;7.228;2022-11-20T11:17:46;33.80;;;15.07;;
35835;SDS011;21955;50.580;7.228;2022-11-20T11:20:16;27.50;;;13.27;;
35835;SDS011;21955;50.580;7.228;2022-11-20T11:22:44;29.00;;;13.30;;
35835;SDS011;21955;50.580;7.228;2022-11-20T11:25:19;29.85;;;13.70;;
35835;SDS011;21955;50.580;7.228;2022-11-20T11:27:46;31.25;;;13.85;;
35835;SDS011;21955;50.580;7.228;2022-11-20T11:30:14;26.92;;;12.68;;
35835;SDS011;21955;50.580;7.228;2022-11-20T11:32:41;27.73;;;12.93;;
35835;SDS011;21955;50.580;7.228;2022-11-20T11:38:00;27.87;;;12.80;;
35835;SDS011;21955;50.580;7.228;2022-11-20T11:40:28;24.85;;;11.55;;
35835;SDS011;21955;50.580;7.228;2022-11-20T11:42:59;24.40;;;11.30;;
35835;SDS011;21955;50.580;7.228;2022-11-20T11:45:28;24.58;;;11.73;;
35835;SDS011;21955;50.580;7.228;2022-11-20T11:47:54;24.43;;;11.63;;
35835;SDS011;21955;50.580;7.228;2022-11-20T11:50:23;22.90;;;10.80;;
35835;SDS011;21955;50.580;7.228;2022-11-20T11:52:55;23.42;;;11.57;;
35835;SDS011;21955;50.580;7.228;2022-11-20T11:55:26;22.63;;;11.23;;
35835;SDS011;21955;50.580;7.228;2022-11-20T11:57:57;23.67;;;11.77;;
35835;SDS011;21955;50.580;7.228;2022-11-20T12:00:26;24.25;;;11.68;;
35835;SDS011;21955;50.580;7.228;2022-11-20T12:02:56;22.77;;;11.45;;
35835;SDS011;21955;50.580;7.228;2022-11-20T12:05:27;22.47;;;11.17;;
35835;SDS011;21955;50.580;7.228;2022-11-20T12:08:01;21.97;;;10.60;;
35835;SDS011;21955;50.580;7.228;2022-11-20T12:10:34;22.10;;;11.00;;
35835;SDS011;21955;50.580;7.228;2022-11-20T12:13:08;23.27;;;11.55;;
35835;SDS011;21955;50.580;7.228;2022-11-20T12:15:37;24.05;;;11.60;;
35835;SDS011;21955;50.580;7.228;2022-11-20T12:18:07;24.38;;;11.98;;
35835;SDS011;21955;50.580;7.228;2022-11-20T12:20:38;23.90;;;12.00;;
35835;SDS011;21955;50.580;7.228;2022-11-20T12:23:13;25.25;;;12.93;;
35835;SDS011;21955;50.580;7.228;2022-11-20T12:25:46;26.00;;;12.77;;
35835;SDS011;21955;50.580;7.228;2022-11-20T12:31:12;25.08;;;12.50;;
35835;SDS011;21955;50.580;7.228;2022-11-20T12:33:45;25.73;;;11.60;;
35835;SDS011;21955;50.580;7.228;2022-11-20T12:36:16;24.60;;;11.90;;
35835;SDS011;21955;50.580;7.228;2022-11-20T12:39:02;25.15;;;11.73;;
35835;SDS011;21955;50.580;7.228;2022-11-20T12:41:43;25.23;;;12.55;;
35835;SDS011;21955;50.580;7.228;2022-11-20T12:44:36;24.38;;;12.13;;
35835;SDS011;21955;50.580;7.228;2022-11-20T12:47:28;26.23;;;12.68;;
35835;SDS011;21955;50.580;7.228;2022-11-20T12:50:00;24.35;;;12.73;;
35835;SDS011;21955;50.580;7.228;2022-11-20T12:52:33;24.73;;;12.38;;
35835;SDS011;21955;50.580;7.228;2022-11-20T12:57:50;27.88;;;13.05;;
35835;SDS011;21955;50.580;7.228;2022-11-20T13:00:20;26.83;;;12.90;;
35835;SDS011;21955;50.580;7.228;2022-11-20T13:03:00;28.92;;;14.10;;
35835;SDS011;21955;50.580;7.228;2022-11-20T13:05:35;27.27;;;13.43;;
35835;SDS011;21955;50.580;7.228;2022-11-20T13:08:04;27.30;;;12.85;;
35835;SDS011;21955;50.580;7.228;2022-11-20T13:10:35;28.35;;;13.38;;
35835;SDS011;21955;50.580;7.228;2022-11-20T13:13:08;27.38;;;12.95;;
35835;SDS011;21955;50.580;7.228;2022-11-20T13:15:41;27.67;;;14.00;;
35835;SDS011;21955;50.580;7.228;2022-11-20T13:18:10;26.40;;;12.77;;
35835;SDS011;21955;50.580;7.228;2022-11-20T13:20:41;29.17;;;13.65;;
35835;SDS011;21955;50.580;7.228;2022-11-20T13:23:08;27.27;;;13.25;;
35835;SDS011;21955;50.580;7.228;2022-11-20T13:25:36;28.23;;;13.23;;
35835;SDS011;21955;50.580;7.228;2022-11-20T13:28:04;25.13;;;12.55;;
35835;SDS011;21955;50.580;7.228;2022-11-20T13:30:33;24.70;;;12.10;;
35835;SDS011;21955;50.580;7.228;2022-11-20T13:33:04;25.42;;;12.45;;
35835;SDS011;21955;50.580;7.228;2022-11-20T13:35:34;25.83;;;12.63;;
35835;SDS011;21955;50.580;7.228;2022-11-20T13:38:03;24.00;;;11.67;;
35835;SDS011;21955;50.580;7.228;2022-11-20T13:40:30;24.40;;;12.23;;
35835;SDS011;21955;50.580;7.228;2022-11-20T13:43:02;24.30;;;12.10;;
35835;SDS011;21955;50.580;7.228;2022-11-20T13:45:31;25.05;;;12.73;;
35835;SDS011;21955;50.580;7.228;2022-11-20T13:48:01;26.48;;;12.70;;
35835;SDS011;21955;50.580;7.228;2022-11-20T13:50:39;27.40;;;12.43;;
35835;SDS011;21955;50.580;7.228;2022-11-20T13:53:10;25.13;;;11.55;;
35835;SDS011;21955;50.580;7.228;2022-11-20T13:55:42;23.88;;;11.98;;
35835;SDS011;21955;50.580;7.228;2022-11-20T13:58:19;25.58;;;12.50;;
35835;SDS011;21955;50.580;7.228;2022-11-20T14:00:50;25.80;;;12.30;;
35835;SDS011;21955;50.580;7.228;2022-11-20T14:03:21;22.95;;;11.63;;
35835;SDS011;21955;50.580;7.228;2022-11-20T14:05:50;24.40;;;11.95;;
35835;SDS011;21955;50.580;7.228;2022-11-20T14:08:23;23.45;;;11.20;;
35835;SDS011;21955;50.580;7.228;2022-11-20T14:10:51;21.90;;;11.35;;
35835;SDS011;21955;50.580;7.228;2022-11-20T14:13:28;23.23;;;11.45;;
35835;SDS011;21955;50.580;7.228;2022-11-20T14:15:56;28.48;;;12.05;;
35835;SDS011;21955;50.580;7.228;2022-11-20T14:18:25;24.05;;;11.82;;
35835;SDS011;21955;50.580;7.228;2022-11-20T14:20:53;26.20;;;11.82;;
35835;SDS011;21955;50.580;7.228;2022-11-20T14:23:24;24.47;;;11.80;;
35835;SDS011;21955;50.580;7.228;2022-11-20T14:25:52;24.00;;;12.00;;
35835;SDS011;21955;50.580;7.228;2022-11-20T14:28:21;23.77;;;11.77;;
35835;SDS011;21955;50.580;7.228;2022-11-20T14:30:49;24.55;;;12.05;;
35835;SDS011;21955;50.580;7.228;2022-11-20T14:33:17;24.67;;;11.88;;
35835;SDS011;21955;50.580;7.228;2022-11-20T14:35:47;23.30;;;11.57;;
35835;SDS011;21955;50.580;7.228;2022-11-20T14:38:15;24.55;;;11.98;;
35835;SDS011;21955;50.580;7.228;2022-11-20T14:40:42;24.35;;;11.63;;